Time;durP1;ratioP1;P1;durP2;ratioP2;P2;SDS_P1;SDS_P2;PMS_P1;PMS_P2;Temp;Humidity;BMP_temperature;BMP_pressure;BME280_temperature;BME280_humidity;BME280_pressure;Samples;Min_cycle;Max_cycle;Signal;HPM_P1;HPM_P2
2023/09/14 02:25:45;;;;;;;0.30;0.30;;;9.10;99.90;;;;;;5313435;22;20060;-64
2023/09/14 02:28:13;;;;;;;0.20;0.20;;;11.20;99.90;;;;;;5071433;28;20049;-65
2023/09/14 02:30:39;;;;;;;0.20;0.20;;;11.50;99.90;;;;;;5071637;28;20483;-65
2023/09/14 02:33:07;;;;;;;0.20;0.20;;;11.20;99.90;;;;;;5071549;28;20048;-65
2023/09/14 02:35:36;;;;;;;0.30;0.30;;;11.50;99.90;;;;;;5071398;28;20076;-64
2023/09/14 02:38:02;;;;;;;0.40;0.40;;;11.10;99.90;;;;;;5070244;28;20140;-64
2023/09/14 02:40:29;;;;;;;0.20;0.20;;;11.20;99.90;;;;;;5071271;28;20040;-64
2023/09/14 02:42:55;;;;;;;0.20;0.20;;;11.00;99.90;;;;;;5071117;28;20045;-64
2023/09/14 02:45:21;;;;;;;0.30;0.30;;;11.30;99.90;;;;;;5071211;28;20386;-64
2023/09/14 02:47:46;;;;;;;0.28;0.28;;;10.90;99.90;;;;;;5071215;28;20085;-64
2023/09/14 02:50:12;;;;;;;0.20;0.20;;;10.80;99.90;;;;;;5074390;28;20480;-64
2023/09/14 02:52:38;;;;;;;0.20;0.20;;;11.20;99.90;;;;;;5074880;28;20044;-64
2023/09/14 02:55:04;;;;;;;0.20;0.20;;;11.00;99.90;;;;;;5074806;28;20123;-64
2023/09/14 02:57:29;;;;;;;0.20;0.20;;;11.00;99.90;;;;;;5074737;28;20095;-65
2023/09/14 02:59:55;;;;;;;0.20;0.20;;;10.70;99.90;;;;;;5074504;28;20083;-64
2023/09/14 03:02:22;;;;;;;0.20;0.20;;;11.00;99.90;;;;;;5074606;28;20033;-65
2023/09/14 03:04:48;;;;;;;0.20;0.20;;;10.80;99.90;;;;;;5074654;28;20105;-65
2023/09/14 03:07:14;;;;;;;0.65;0.65;;;10.80;99.90;;;;;;5074596;28;20480;-64
2023/09/14 03:09:40;;;;;;;0.20;0.20;;;10.40;99.90;;;;;;5074535;28;20260;-64
2023/09/14 03:12:06;;;;;;;0.20;0.20;;;10.70;99.90;;;;;;5074494;28;20209;-64
2023/09/14 03:14:32;;;;;;;0.30;0.30;;;10.60;99.90;;;;;;5074481;28;20059;-64
2023/09/14 03:16:58;;;;;;;0.20;0.20;;;10.60;99.90;;;;;;5074431;28;20048;-64
2023/09/14 03:19:24;;;;;;;1.10;0.50;;;10.20;99.90;;;;;;5074337;28;20072;-64
2023/09/14 03:21:50;;;;;;;;;;;10.80;99.90;;;;;;5074655;28;20051;-64
2023/09/14 03:24:15;;;;;;;0.30;0.30;;;10.60;99.90;;;;;;5074207;28;19979;-64
2023/09/14 03:26:41;;;;;;;0.20;0.20;;;10.40;99.90;;;;;;5091856;28;20148;-64
2023/09/14 03:29:07;;;;;;;0.20;0.20;;;10.40;99.90;;;;;;5094395;28;20048;-65
2023/09/14 03:31:33;;;;;;;0.50;0.50;;;10.00;99.90;;;;;;5094361;28;20051;-64
2023/09/14 03:33:58;;;;;;;0.80;0.80;;;10.20;99.90;;;;;;5094270;28;20126;-64
2023/09/14 03:36:25;;;;;;;0.40;0.40;;;10.30;99.90;;;;;;5094233;28;20101;-64
2023/09/14 03:38:51;;;;;;;0.35;0.35;;;10.20;99.90;;;;;;5094171;28;20059;-64
2023/09/14 03:41:16;;;;;;;0.30;0.30;;;10.10;99.90;;;;;;5076307;28;20044;-64
2023/09/14 03:43:42;;;;;;;0.68;0.68;;;10.10;99.90;;;;;;5094076;28;20044;-64
2023/09/14 03:46:08;;;;;;;;;;;10.30;99.90;;;;;;5094572;28;20044;-64
2023/09/14 03:48:35;;;;;;;0.20;0.20;;;10.20;99.90;;;;;;5094278;28;19920;-64
2023/09/14 03:51:01;;;;;;;0.98;0.40;;;10.20;99.90;;;;;;5094378;28;20528;-64
2023/09/14 03:53:27;;;;;;;0.20;0.20;;;10.10;99.90;;;;;;5094129;28;20040;-64
2023/09/14 03:55:54;;;;;;;0.20;0.20;;;9.90;99.90;;;;;;5093888;28;20052;-64
2023/09/14 03:58:20;;;;;;;0.20;0.20;;;9.90;99.90;;;;;;5075942;28;20048;-64
2023/09/14 04:00:46;;;;;;;0.30;0.30;;;10.10;99.90;;;;;;5093723;28;20389;-64
2023/09/14 04:03:11;;;;;;;0.20;0.20;;;10.00;99.90;;;;;;5093658;28;20044;-65
2023/09/14 04:05:37;;;;;;;0.30;0.30;;;9.80;99.90;;;;;;5093747;28;20194;-64
2023/09/14 04:08:03;;;;;;;0.20;0.20;;;9.90;99.90;;;;;;5093671;28;20214;-65
2023/09/14 04:10:29;;;;;;;0.40;0.40;;;9.70;99.90;;;;;;5093604;28;20040;-64
2023/09/14 04:13:34;;;;;;;7.13;0.73;;;9.70;99.90;;;;;;5093538;28;20491;-64
2023/09/14 04:16:02;;;;;;;2.17;0.28;;;9.80;99.90;;;;;;5093505;28;20044;-65
2023/09/14 04:18:28;;;;;;;0.20;0.20;;;9.30;99.90;;;;;;5093412;28;20051;-64
2023/09/14 04:20:55;;;;;;;0.20;0.20;;;9.40;99.90;;;;;;5093476;28;20105;-64
2023/09/14 04:23:20;;;;;;;;;;;10.00;99.90;;;;;;5093710;28;20048;-64
2023/09/14 04:25:47;;;;;;;0.38;0.38;;;9.60;99.90;;;;;;5093334;28;20348;-64
2023/09/14 04:28:15;;;;;;;0.20;0.20;;;9.70;99.90;;;;;;5093514;28;20087;-66
2023/09/14 04:30:46;;;;;;;0.25;0.25;;;9.50;99.90;;;;;;5093512;28;20071;-64
2023/09/14 04:33:12;;;;;;;0.30;0.30;;;9.60;99.90;;;;;;5093400;28;20040;-64
2023/09/14 04:35:39;;;;;;;0.60;0.60;;;10.10;99.90;;;;;;5075064;28;20056;-64
2023/09/14 04:38:05;;;;;;;;;;;9.50;99.90;;;;;;5093455;28;20044;-64
2023/09/14 04:40:34;;;;;;;0.20;0.20;;;9.50;99.90;;;;;;5093038;28;20015;-64
2023/09/14 04:43:00;;;;;;;0.40;0.40;;;9.60;99.90;;;;;;5092859;28;20036;-65
2023/09/14 04:45:25;;;;;;;0.20;0.20;;;9.50;99.90;;;;;;5092959;28;20055;-64
2023/09/14 04:47:51;;;;;;;0.30;0.30;;;9.60;99.90;;;;;;5092881;28;20062;-64
2023/09/14 04:50:17;;;;;;;0.28;0.28;;;9.20;99.90;;;;;;5092854;28;20495;-64
2023/09/14 04:52:42;;;;;;;0.30;0.30;;;9.80;99.90;;;;;;5092836;28;20498;-64
2023/09/14 04:55:09;;;;;;;0.30;0.30;;;9.70;99.90;;;;;;5093094;28;20403;-64
2023/09/14 04:57:35;;;;;;;0.20;0.20;;;9.60;99.90;;;;;;5092779;28;20078;-64
2023/09/14 05:00:00;;;;;;;0.47;0.47;;;9.30;99.90;;;;;;5092620;28;20055;-64
2023/09/14 05:02:27;;;;;;;0.30;0.30;;;9.30;99.90;;;;;;5092481;28;20051;-64
2023/09/14 05:04:53;;;;;;;0.40;0.40;;;9.80;99.90;;;;;;5092531;28;20122;-64
2023/09/14 05:07:20;;;;;;;0.30;0.30;;;9.40;99.90;;;;;;5092470;28;20044;-64
2023/09/14 05:09:46;;;;;;;0.35;0.35;;;9.50;99.90;;;;;;5092443;28;20044;-64
2023/09/14 05:12:13;;;;;;;0.32;0.32;;;9.50;99.90;;;;;;5092158;28;20051;-64
2023/09/14 05:14:39;;;;;;;0.20;0.20;;;9.50;99.90;;;;;;5092365;28;20043;-64
2023/09/14 05:17:05;;;;;;;0.30;0.30;;;9.50;99.90;;;;;;5092301;28;20511;-64
2023/09/14 05:19:30;;;;;;;0.40;0.40;;;9.40;99.90;;;;;;5092567;28;20388;-64
2023/09/14 05:21:57;;;;;;;0.30;0.30;;;9.20;99.90;;;;;;5091915;28;20036;-65
2023/09/14 05:24:22;;;;;;;;;;;9.50;99.90;;;;;;5092640;28;20195;-64
2023/09/14 05:26:48;;;;;;;0.20;0.20;;;9.50;99.90;;;;;;5091762;28;19920;-64
2023/09/14 05:29:14;;;;;;;;;;;9.60;99.90;;;;;;5092507;28;20048;-65
2023/09/14 05:31:40;;;;;;;0.30;0.30;;;9.10;99.90;;;;;;5092095;28;19935;-64
2023/09/14 05:34:06;;;;;;;0.30;0.30;;;9.60;99.90;;;;;;5092010;28;20044;-64
2023/09/14 05:36:32;;;;;;;0.20;0.20;;;9.70;99.90;;;;;;5092003;28;20054;-64
2023/09/14 05:38:58;;;;;;;0.25;0.25;;;9.80;99.90;;;;;;5091977;28;20555;-64
2023/09/14 05:41:23;;;;;;;0.30;0.30;;;9.50;99.90;;;;;;5092000;28;20050;-64
2023/09/14 05:43:49;;;;;;;0.20;0.20;;;9.60;99.90;;;;;;5091846;28;20055;-64
2023/09/14 05:46:15;;;;;;;0.20;0.20;;;9.70;99.90;;;;;;5073841;28;20044;-64
2023/09/14 05:48:40;;;;;;;0.30;0.30;;;9.50;99.90;;;;;;5091828;28;20048;-64
2023/09/14 05:51:06;;;;;;;0.30;0.30;;;9.80;99.90;;;;;;5091799;28;20051;-64
2023/09/14 05:53:32;;;;;;;0.20;0.20;;;9.60;99.90;;;;;;5091801;28;20044;-64
2023/09/14 05:55:58;;;;;;;0.35;0.35;;;9.60;99.90;;;;;;5091794;28;20044;-64
2023/09/14 05:58:23;;;;;;;0.43;0.43;;;10.00;99.90;;;;;;5073771;28;20495;-64
2023/09/14 06:00:49;;;;;;;0.30;0.30;;;10.00;99.90;;;;;;5091815;28;20043;-64
2023/09/14 06:03:14;;;;;;;0.40;0.40;;;9.80;99.90;;;;;;5091618;28;20047;-64
2023/09/14 06:05:40;;;;;;;0.40;0.40;;;10.00;99.90;;;;;;5091666;28;20052;-64
2023/09/14 06:08:06;;;;;;;0.55;0.55;;;10.10;99.90;;;;;;5091662;28;20052;-64
2023/09/14 06:10:32;;;;;;;0.30;0.30;;;10.00;99.90;;;;;;5091717;28;20080;-64
2023/09/14 06:12:57;;;;;;;0.20;0.20;;;10.30;99.90;;;;;;5091747;28;20048;-64
2023/09/14 06:15:23;;;;;;;0.52;0.45;;;10.20;99.90;;;;;;5091861;28;20071;-64
2023/09/14 06:17:49;;;;;;;0.40;0.40;;;10.40;99.90;;;;;;5091867;28;20097;-64
2023/09/14 06:20:15;;;;;;;0.82;0.82;;;10.30;99.90;;;;;;5091605;28;20396;-64
2023/09/14 06:22:41;;;;;;;6.32;0.98;;;10.80;99.90;;;;;;5091473;28;20040;-64
2023/09/14 06:25:07;;;;;;;0.40;0.40;;;10.30;99.90;;;;;;5094311;28;20058;-64
2023/09/14 06:27:33;;;;;;;0.30;0.30;;;11.00;99.90;;;;;;5095634;28;20389;-64
2023/09/14 06:29:58;;;;;;;0.30;0.30;;;10.80;99.90;;;;;;5095199;28;20096;-64
2023/09/14 06:32:24;;;;;;;0.20;0.20;;;10.80;99.90;;;;;;5095476;28;20040;-64
2023/09/14 06:34:50;;;;;;;0.25;0.25;;;10.70;99.90;;;;;;5095182;28;20060;-64
2023/09/14 06:37:16;;;;;;;0.65;0.65;;;11.30;99.90;;;;;;5095331;28;20094;-64
2023/09/14 06:39:42;;;;;;;;;;;11.30;99.90;;;;;;5095750;28;20048;-64
2023/09/14 06:42:07;;;;;;;0.30;0.30;;;11.10;99.90;;;;;;5095216;28;19931;-64
2023/09/14 06:44:33;;;;;;;0.32;0.32;;;11.50;99.90;;;;;;5095225;28;20403;-65
2023/09/14 06:47:01;;;;;;;0.40;0.40;;;11.50;99.90;;;;;;5095225;28;20090;-64
2023/09/14 06:49:26;;;;;;;0.20;0.20;;;11.70;99.90;;;;;;5095144;28;20048;-64
2023/09/14 06:51:52;;;;;;;0.30;0.30;;;11.60;99.90;;;;;;5094864;28;20093;-64
2023/09/14 06:54:18;;;;;;;0.55;0.55;;;11.90;99.90;;;;;;5095063;28;20040;-64
2023/09/14 06:56:43;;;;;;;0.90;0.65;;;11.90;99.90;;;;;;5095008;28;20109;-64
2023/09/14 06:59:09;;;;;;;0.20;0.20;;;11.90;99.90;;;;;;5095230;28;20040;-64
2023/09/14 07:01:35;;;;;;;0.30;0.30;;;12.10;99.90;;;;;;5094844;28;20048;-64
2023/09/14 07:04:01;;;;;;;0.30;0.30;;;12.20;99.90;;;;;;5094805;28;20091;-64
2023/09/14 07:06:27;;;;;;;0.10;0.10;;;12.10;99.90;;;;;;5094854;28;20148;-64
2023/09/14 07:08:52;;;;;;;0.30;0.30;;;12.20;99.90;;;;;;5094862;28;20047;-64
2023/09/14 07:11:18;;;;;;;0.43;0.40;;;12.60;99.90;;;;;;5094725;28;20050;-64
2023/09/14 07:13:44;;;;;;;1.08;0.40;;;12.60;99.90;;;;;;5094721;28;20120;-64
2023/09/14 07:16:10;;;;;;;0.20;0.20;;;12.70;99.90;;;;;;5094629;28;20079;-64
2023/09/14 07:18:35;;;;;;;0.20;0.20;;;12.90;99.90;;;;;;5094596;28;20048;-65
2023/09/14 07:21:02;;;;;;;0.20;0.20;;;12.80;99.90;;;;;;5094557;28;20035;-64
2023/09/14 07:23:30;;;;;;;0.20;0.20;;;13.20;99.90;;;;;;5094392;28;20110;-65
2023/09/14 07:25:56;;;;;;;0.20;0.20;;;13.30;99.90;;;;;;5094124;28;20397;-64
2023/09/14 07:28:22;;;;;;;0.25;0.25;;;13.30;99.90;;;;;;5094380;28;20056;-65
2023/09/14 07:30:50;;;;;;;0.40;0.40;;;13.50;99.90;;;;;;5094335;28;20044;-64
2023/09/14 07:33:17;;;;;;;0.20;0.20;;;13.80;99.90;;;;;;5094394;28;20048;-65
2023/09/14 07:35:44;;;;;;;0.20;0.20;;;13.70;99.90;;;;;;5093808;28;20399;-65
2023/09/14 07:38:14;;;;;;;1.55;1.00;;;13.80;99.90;;;;;;5094254;28;20044;-65
2023/09/14 07:40:41;;;;;;;0.20;0.20;;;13.70;99.90;;;;;;5094521;28;20044;-65
2023/09/14 07:43:06;;;;;;;0.20;0.20;;;14.00;99.90;;;;;;5094079;28;20454;-64
2023/09/14 07:45:37;;;;;;;0.35;0.30;;;14.20;99.90;;;;;;5094102;28;20122;-64
2023/09/14 07:48:04;;;;;;;0.20;0.20;;;14.00;99.90;;;;;;5094188;28;20149;-65
2023/09/14 07:50:34;;;;;;;0.15;0.15;;;14.40;99.90;;;;;;5094019;28;20051;-65
2023/09/14 07:53:00;;;;;;;0.20;0.20;;;14.40;99.90;;;;;;5093988;28;20044;-65
2023/09/14 07:55:25;;;;;;;0.45;0.45;;;14.60;99.90;;;;;;5094107;28;20519;-65
2023/09/14 07:57:51;;;;;;;0.45;0.32;;;14.70;99.90;;;;;;5093894;28;20048;-65
2023/09/14 08:00:17;;;;;;;0.20;0.20;;;15.00;99.90;;;;;;5093810;28;20074;-64
2023/09/14 08:02:43;;;;;;;0.30;0.30;;;15.00;99.90;;;;;;5093960;28;20040;-64
2023/09/14 08:05:08;;;;;;;;;;;14.80;99.90;;;;;;5094465;28;20062;-64
2023/09/14 08:07:34;;;;;;;0.10;0.10;;;15.60;99.90;;;;;;5093924;28;20500;-64
2023/09/14 08:10:00;;;;;;;;;;;15.40;99.90;;;;;;5094100;28;20067;-64
2023/09/14 08:12:26;;;;;;;1.65;0.38;;;15.70;99.90;;;;;;5093645;28;19924;-64
2023/09/14 08:14:51;;;;;;;0.30;0.30;;;15.90;99.90;;;;;;5093227;28;20491;-65
2023/09/14 08:17:17;;;;;;;0.20;0.20;;;15.90;99.90;;;;;;5093550;28;20051;-65
2023/09/14 08:19:43;;;;;;;;;;;15.90;99.90;;;;;;5093507;28;20488;-64
2023/09/14 08:22:09;;;;;;;2.42;0.45;;;16.30;99.90;;;;;;5093205;28;19920;-64
2023/09/14 08:24:35;;;;;;;0.40;0.40;;;16.30;99.90;;;;;;5093312;28;20086;-64
2023/09/14 08:27:01;;;;;;;0.30;0.30;;;16.40;99.90;;;;;;5093370;28;20483;-64
2023/09/14 08:29:26;;;;;;;;;;;16.50;99.90;;;;;;5093656;28;20048;-65
2023/09/14 08:31:52;;;;;;;0.15;0.15;;;16.30;99.90;;;;;;5093516;28;19975;-64
2023/09/14 08:34:18;;;;;;;;;;;16.30;99.90;;;;;;5093574;28;20048;-64
2023/09/14 08:36:43;;;;;;;0.10;0.10;;;16.80;99.90;;;;;;5093226;28;20252;-64
2023/09/14 08:39:09;;;;;;;;;;;17.20;99.90;;;;;;5093608;28;20052;-65
2023/09/14 08:41:37;;;;;;;0.20;0.20;;;17.20;99.90;;;;;;5093271;28;19998;-64
2023/09/14 08:44:04;;;;;;;0.22;0.22;;;17.40;99.90;;;;;;5093121;28;20091;-64
2023/09/14 08:46:34;;;;;;;0.20;0.20;;;17.60;99.90;;;;;;5092131;28;20040;-64
2023/09/14 08:49:03;;;;;;;0.17;0.17;;;17.70;99.90;;;;;;5092986;28;20055;-64
2023/09/14 08:51:32;;;;;;;0.20;0.20;;;17.90;99.90;;;;;;5092852;28;20055;-64
2023/09/14 08:53:59;;;;;;;0.20;0.20;;;18.10;99.90;;;;;;5092801;28;20048;-64
2023/09/14 08:56:26;;;;;;;0.43;0.38;;;18.40;99.90;;;;;;5092721;28;20051;-64
2023/09/14 08:58:52;;;;;;;0.08;0.08;;;18.30;99.90;;;;;;5092339;28;20542;-64
2023/09/14 09:01:18;;;;;;;0.10;0.10;;;18.70;99.90;;;;;;5092609;28;20484;-65
2023/09/14 09:03:44;;;;;;;0.30;0.30;;;18.60;99.90;;;;;;5092515;28;20040;-64
2023/09/14 09:06:12;;;;;;;0.15;0.15;;;18.50;99.90;;;;;;5092561;28;20126;-65
2023/09/14 09:08:38;;;;;;;1.20;1.10;;;18.70;99.90;;;;;;5092505;28;20083;-65
2023/09/14 09:11:05;;;;;;;0.10;0.10;;;18.30;99.90;;;;;;5092185;28;20094;-65
2023/09/14 09:13:43;;;;;;;0.93;0.85;;;18.30;99.90;;;;;;5092380;28;20040;-65
2023/09/14 09:16:11;;;;;;;0.20;0.20;;;17.80;99.90;;;;;;5092392;28;20093;-64
2023/09/14 09:19:06;;;;;;;0.30;0.30;;;17.50;99.90;;;;;;5092329;28;20052;-65
2023/09/14 09:21:34;;;;;;;0.10;0.10;;;17.80;99.90;;;;;;5092379;28;20054;-66
2023/09/14 09:24:03;;;;;;;0.32;0.32;;;17.70;99.90;;;;;;5092170;28;20046;-65
2023/09/14 09:26:37;;;;;;;0.15;0.15;;;17.40;99.90;;;;;;5092097;28;20139;-65
2023/09/14 09:29:19;;;;;;;0.30;0.30;;;18.00;99.90;;;;;;5092223;28;20055;-65
2023/09/14 09:31:47;;;;;;;0.10;0.10;;;17.70;99.90;;;;;;5092063;28;20443;-65
2023/09/14 09:34:13;;;;;;;0.17;0.17;;;17.80;99.90;;;;;;5091996;28;20052;-65
2023/09/14 09:36:39;;;;;;;0.00;0.00;;;17.80;99.90;;;;;;5092088;28;20047;-64
2023/09/14 09:39:06;;;;;;;0.08;0.08;;;17.90;99.90;;;;;;5073993;28;20040;-65
2023/09/14 09:41:33;;;;;;;0.15;0.15;;;18.10;99.90;;;;;;5092030;28;20046;-64
2023/09/14 09:44:00;;;;;;;0.28;0.28;;;18.20;99.90;;;;;;5091873;28;20140;-65
2023/09/14 09:46:26;;;;;;;0.10;0.10;;;18.10;99.90;;;;;;5091984;28;20036;-65
2023/09/14 09:48:51;;;;;;;0.45;0.20;;;18.40;99.90;;;;;;5091938;28;20080;-64
2023/09/14 09:51:21;;;;;;;0.10;0.10;;;18.50;99.90;;;;;;5091966;28;20186;-64
2023/09/14 09:54:07;;;;;;;0.10;0.10;;;19.00;99.90;;;;;;5092093;28;20044;-64
2023/09/14 09:56:35;;;;;;;2.50;1.07;;;19.20;99.90;;;;;;5091584;28;20104;-65
2023/09/14 09:59:03;;;;;;;0.00;0.00;;;19.10;99.90;;;;;;5091829;28;20052;-65
2023/09/14 10:01:29;;;;;;;0.10;0.10;;;19.20;99.90;;;;;;5091822;28;20485;-64
2023/09/14 10:03:56;;;;;;;0.10;0.10;;;19.20;99.90;;;;;;5091929;28;20053;-64
2023/09/14 10:06:22;;;;;;;5.88;0.77;;;18.80;99.90;;;;;;5091883;28;20059;-64
2023/09/14 10:08:57;;;;;;;2.25;0.55;;;18.80;99.90;;;;;;5091839;28;20048;-63
2023/09/14 10:11:24;;;;;;;0.93;0.93;;;18.80;99.90;;;;;;5091739;28;20052;-64
2023/09/14 10:13:51;;;;;;;0.20;0.20;;;18.80;99.90;;;;;;5091697;28;20044;-63
2023/09/14 10:16:23;;;;;;;0.22;0.22;;;18.40;99.90;;;;;;5091668;28;20087;-64
2023/09/14 10:18:56;;;;;;;1.08;1.05;;;18.40;99.90;;;;;;5091380;28;20523;-64
2023/09/14 10:21:24;;;;;;;0.20;0.20;;;18.30;99.90;;;;;;5091705;28;20054;-64
2023/09/14 10:23:51;;;;;;;0.10;0.10;;;18.70;99.90;;;;;;5091463;28;20393;-64
2023/09/14 10:26:18;;;;;;;5.18;0.22;;;19.10;99.90;;;;;;5091461;28;20087;-64
2023/09/14 10:28:45;;;;;;;1.17;0.52;;;19.00;99.90;;;;;;5091520;28;20052;-65
2023/09/14 10:31:13;;;;;;;0.17;0.17;;;18.80;99.90;;;;;;5091142;28;20490;-63
2023/09/14 10:33:47;;;;;;;1.27;0.38;;;18.90;99.90;;;;;;5073596;28;20066;-64
2023/09/14 10:36:14;;;;;;;0.15;0.15;;;19.50;99.90;;;;;;5091409;28;20385;-64
2023/09/14 10:38:45;;;;;;;1.40;1.30;;;19.70;99.90;;;;;;5091416;28;20124;-64
2023/09/14 10:41:14;;;;;;;2.17;0.35;;;19.80;99.90;;;;;;5091397;28;20046;-64
2023/09/14 10:43:41;;;;;;;0.22;0.22;;;19.50;99.90;;;;;;5091286;28;20040;-64
2023/09/14 10:46:14;;;;;;;0.17;0.17;;;19.70;99.90;;;;;;5091315;28;20052;-64
2023/09/14 10:48:40;;;;;;;0.52;0.35;;;19.70;99.90;;;;;;5091373;28;20052;-64
2023/09/14 10:51:09;;;;;;;0.10;0.10;;;19.80;99.90;;;;;;5091249;28;20048;-64
2023/09/14 10:53:35;;;;;;;1.05;0.35;;;19.90;99.90;;;;;;5091282;28;20118;-64
2023/09/14 10:56:02;;;;;;;0.63;0.63;;;20.00;99.90;;;;;;5091230;28;20122;-64
2023/09/14 10:58:41;;;;;;;0.10;0.10;;;19.90;99.90;;;;;;5091180;28;20076;-64
2023/09/14 11:01:11;;;;;;;0.13;0.13;;;19.80;99.90;;;;;;5091231;28;20062;-64
2023/09/14 11:04:13;;;;;;;0.43;0.22;;;19.60;99.90;;;;;;5091154;28;20048;-64
2023/09/14 11:06:47;;;;;;;1.55;1.45;;;19.90;99.90;;;;;;5091487;28;20056;-64
2023/09/14 11:09:14;;;;;;;0.10;0.10;;;19.80;99.90;;;;;;5091602;28;20048;-64
2023/09/14 11:11:47;;;;;;;0.10;0.10;;;19.70;99.90;;;;;;5094074;28;20062;-63
2023/09/14 11:14:14;;;;;;;0.20;0.20;;;19.70;99.90;;;;;;5094777;28;20051;-63
2023/09/14 11:16:54;;;;;;;0.03;0.03;;;19.10;99.90;;;;;;5094710;28;20047;-65
2023/09/14 11:19:32;;;;;;;0.47;0.47;;;18.70;99.90;;;;;;5094692;28;20052;-64
2023/09/14 11:22:16;;;;;;;0.20;0.20;;;18.70;99.90;;;;;;5094509;28;20062;-64
2023/09/14 11:24:42;;;;;;;0.10;0.10;;;19.60;99.90;;;;;;5094490;28;20051;-64
2023/09/14 11:27:17;;;;;;;1.65;0.60;;;19.80;99.90;;;;;;5094577;28;20052;-64
2023/09/14 11:29:44;;;;;;;0.22;0.17;;;19.80;99.90;;;;;;5094545;28;20044;-64
2023/09/14 11:32:17;;;;;;;0.30;0.30;;;19.80;99.90;;;;;;5094410;28;20101;-64
2023/09/14 11:34:44;;;;;;;0.20;0.20;;;19.60;99.90;;;;;;5094584;28;20047;-64
2023/09/14 11:37:13;;;;;;;0.10;0.10;;;19.40;99.90;;;;;;5094427;28;20519;-64
2023/09/14 11:39:40;;;;;;;0.15;0.15;;;19.30;99.90;;;;;;5094523;28;20507;-64
2023/09/14 11:42:06;;;;;;;1.17;0.30;;;19.10;99.90;;;;;;5094184;28;20079;-63
2023/09/14 11:44:44;;;;;;;0.20;0.20;;;19.80;99.90;;;;;;5094198;28;20098;-64
2023/09/14 11:47:10;;;;;;;1.70;0.13;;;20.10;99.90;;;;;;5094225;28;20052;-64
2023/09/14 11:49:36;;;;;;;0.30;0.30;;;19.70;99.90;;;;;;5094051;28;20087;-64
2023/09/14 11:52:03;;;;;;;0.30;0.30;;;19.60;99.90;;;;;;5094002;28;20119;-64
2023/09/14 11:54:29;;;;;;;0.40;0.40;;;19.60;99.90;;;;;;5093959;28;20112;-64
2023/09/14 11:57:00;;;;;;;0.20;0.20;;;19.40;99.90;;;;;;5093908;28;20055;-64
2023/09/14 11:59:30;;;;;;;0.10;0.10;;;19.20;99.90;;;;;;5093839;28;20090;-64
2023/09/14 12:01:56;;;;;;;10.52;2.17;;;19.50;99.90;;;;;;5093729;28;20088;-64
2023/09/14 12:04:25;;;;;;;0.40;0.40;;;20.00;99.90;;;;;;5093834;28;20146;-63
2023/09/14 12:06:51;;;;;;;0.52;0.32;;;20.10;99.90;;;;;;5093793;28;20465;-62
2023/09/14 12:09:16;;;;;;;0.45;0.40;;;20.60;99.90;;;;;;5093712;28;20127;-64
2023/09/14 12:11:44;;;;;;;0.00;0.00;;;20.60;99.90;;;;;;5093619;28;20040;-64
2023/09/14 12:14:09;;;;;;;0.70;0.38;;;20.40;99.90;;;;;;5093569;28;20051;-63
2023/09/14 12:16:38;;;;;;;1.65;0.32;;;20.40;99.90;;;;;;5093495;28;20051;-63
2023/09/14 12:19:04;;;;;;;0.20;0.20;;;19.90;99.90;;;;;;5093473;28;20090;-64
2023/09/14 12:21:29;;;;;;;0.03;0.03;;;20.10;99.90;;;;;;5093415;28;20452;-64
2023/09/14 12:23:56;;;;;;;0.10;0.10;;;20.60;99.90;;;;;;5093301;28;20376;-64
2023/09/14 12:26:22;;;;;;;0.10;0.10;;;21.00;99.90;;;;;;5092948;28;20063;-64
2023/09/14 12:28:58;;;;;;;0.25;0.25;;;20.90;99.90;;;;;;5093318;28;20051;-63
2023/09/14 12:31:25;;;;;;;0.55;0.28;;;20.70;99.90;;;;;;5093317;28;20044;-64
2023/09/14 12:33:52;;;;;;;0.65;0.65;;;20.80;99.90;;;;;;5093161;28;20048;-64
2023/09/14 12:36:18;;;;;;;0.10;0.10;;;20.80;99.90;;;;;;5093141;28;20112;-64
2023/09/14 12:38:47;;;;;;;0.10;0.10;;;20.70;99.90;;;;;;5093152;28;20051;-64
2023/09/14 12:41:14;;;;;;;0.10;0.10;;;20.70;99.90;;;;;;5093031;28;20044;-64
2023/09/14 12:43:40;;;;;;;0.20;0.20;;;21.30;99.90;;;;;;5092854;28;20083;-64
2023/09/14 12:46:06;;;;;;;0.10;0.10;;;21.50;99.90;;;;;;5074957;28;20047;-64
2023/09/14 12:48:32;;;;;;;0.30;0.30;;;20.60;99.90;;;;;;5092590;28;20044;-64
2023/09/14 12:50:58;;;;;;;0.10;0.10;;;20.80;99.90;;;;;;5092574;28;20065;-64
2023/09/14 12:53:27;;;;;;;0.47;0.45;;;21.00;99.90;;;;;;5092391;28;20048;-64
2023/09/14 12:55:55;;;;;;;0.10;0.10;;;21.00;99.90;;;;;;5092403;28;20051;-64
2023/09/14 12:58:22;;;;;;;0.55;0.28;;;20.80;99.90;;;;;;5092368;28;20048;-64
2023/09/14 13:00:49;;;;;;;0.10;0.10;;;21.10;99.90;;;;;;5092343;28;20052;-65
2023/09/14 13:03:19;;;;;;;0.50;0.50;;;21.60;99.90;;;;;;5092251;28;20047;-65
2023/09/14 13:05:46;;;;;;;1.35;0.50;;;21.50;99.90;;;;;;5092117;28;20496;-64
2023/09/14 13:08:12;;;;;;;0.10;0.10;;;21.30;99.90;;;;;;5092250;28;20131;-63
2023/09/14 13:10:38;;;;;;;0.32;0.32;;;21.00;99.90;;;;;;5092266;28;20462;-64
2023/09/14 13:13:10;;;;;;;0.00;0.00;;;21.00;99.90;;;;;;5074042;28;20059;-65
2023/09/14 13:15:39;;;;;;;0.68;0.68;;;21.50;99.90;;;;;;5092166;28;20036;-64
2023/09/14 13:18:13;;;;;;;0.10;0.10;;;21.20;99.90;;;;;;5092091;28;20113;-64
2023/09/14 13:20:49;;;;;;;0.10;0.10;;;21.80;99.90;;;;;;5092103;28;20490;-64
2023/09/14 13:23:15;;;;;;;0.15;0.15;;;21.80;99.90;;;;;;5073890;28;20054;-65
2023/09/14 13:25:41;;;;;;;0.30;0.30;;;22.00;99.90;;;;;;5091900;28;20098;-65
2023/09/14 13:28:07;;;;;;;0.10;0.10;;;22.10;99.90;;;;;;5092136;28;20065;-65
2023/09/14 13:30:32;;;;;;;0.00;0.00;;;22.30;99.90;;;;;;5092217;28;20048;-65
2023/09/14 13:32:58;;;;;;;0.17;0.17;;;22.20;99.90;;;;;;5091416;28;20044;-65
2023/09/14 13:35:26;;;;;;;0.00;0.00;;;22.40;99.90;;;;;;5091841;28;20123;-62
2023/09/14 13:37:52;;;;;;;0.25;0.17;;;22.70;99.90;;;;;;5091393;28;20436;-63
2023/09/14 13:40:20;;;;;;;0.08;0.08;;;22.80;99.90;;;;;;5091821;28;20149;-63
2023/09/14 13:42:48;;;;;;;0.03;0.03;;;22.80;99.90;;;;;;5091669;28;20056;-62
2023/09/14 13:45:14;;;;;;;0.30;0.10;;;22.90;99.90;;;;;;5091621;28;20048;-63
2023/09/14 13:47:40;;;;;;;0.20;0.20;;;22.80;99.90;;;;;;5091334;28;20685;-63
2023/09/14 13:50:07;;;;;;;0.47;0.25;;;22.60;99.90;;;;;;5091572;28;20056;-64
2023/09/14 13:52:34;;;;;;;0.05;0.05;;;22.10;99.90;;;;;;5091558;28;20048;-64
2023/09/14 13:55:00;;;;;;;0.17;0.17;;;22.40;99.90;;;;;;5091753;28;20052;-63
2023/09/14 13:57:26;;;;;;;0.10;0.10;;;22.00;99.90;;;;;;5091753;28;20047;-63
2023/09/14 13:59:52;;;;;;;0.40;0.38;;;22.00;99.90;;;;;;5073588;28;20131;-64
2023/09/14 14:02:18;;;;;;;0.93;0.40;;;22.10;99.90;;;;;;5091598;28;20132;-63
2023/09/14 14:04:44;;;;;;;0.00;0.00;;;22.10;99.90;;;;;;5091679;28;20472;-63
2023/09/14 14:07:12;;;;;;;0.00;0.00;;;22.40;99.90;;;;;;5091674;28;20524;-63
2023/09/14 14:09:39;;;;;;;0.68;0.55;;;22.80;99.90;;;;;;5091650;28;20510;-63
2023/09/14 14:12:06;;;;;;;1.92;0.70;;;22.80;99.90;;;;;;5091590;28;20059;-63
2023/09/14 14:14:31;;;;;;;0.10;0.10;;;23.30;99.90;;;;;;5091492;28;20052;-63
2023/09/14 14:16:57;;;;;;;0.10;0.10;;;23.10;99.90;;;;;;5091559;28;20044;-63
2023/09/14 14:19:23;;;;;;;0.40;0.40;;;23.00;99.90;;;;;;5091563;28;20044;-64
2023/09/14 14:21:49;;;;;;;0.05;0.05;;;23.10;99.90;;;;;;5091461;28;20388;-63
2023/09/14 14:24:15;;;;;;;0.10;0.10;;;23.20;99.90;;;;;;5091227;28;20047;-64
2023/09/14 14:26:42;;;;;;;0.32;0.30;;;23.50;99.90;;;;;;5091053;28;20059;-64
2023/09/14 14:29:09;;;;;;;0.70;0.20;;;24.10;99.90;;;;;;5091496;28;20117;-62
2023/09/14 14:31:35;;;;;;;0.35;0.35;;;24.00;99.90;;;;;;5091253;28;20510;-63
2023/09/14 14:34:00;;;;;;;0.57;0.25;;;24.20;99.90;;;;;;5091372;28;20054;-64
2023/09/14 14:36:26;;;;;;;0.95;0.70;;;24.50;99.90;;;;;;5091408;28;20040;-63
2023/09/14 14:38:52;;;;;;;0.70;0.30;;;24.80;99.90;;;;;;5091381;28;20044;-63
2023/09/14 14:41:18;;;;;;;0.85;0.47;;;24.70;99.90;;;;;;5091409;28;20101;-63
2023/09/14 14:43:43;;;;;;;0.43;0.28;;;25.20;99.90;;;;;;5091285;28;20542;-63
2023/09/14 14:46:09;;;;;;;0.32;0.20;;;25.10;99.90;;;;;;5094681;28;20054;-63
2023/09/14 14:48:41;;;;;;;3.30;0.85;;;24.90;99.90;;;;;;5095246;28;20044;-64
2023/09/14 14:51:06;;;;;;;0.30;0.30;;;24.80;99.90;;;;;;5095282;28;20048;-63
2023/09/14 14:53:32;;;;;;;1.17;0.40;;;23.80;99.90;;;;;;5095206;28;20047;-63
2023/09/14 14:55:58;;;;;;;0.00;0.00;;;23.50;99.90;;;;;;5095470;28;20036;-63
2023/09/14 14:58:24;;;;;;;0.77;0.55;;;23.40;99.90;;;;;;5095147;28;20044;-63
2023/09/14 15:00:50;;;;;;;0.25;0.20;;;23.90;99.90;;;;;;5095326;28;20040;-64
2023/09/14 15:03:16;;;;;;;0.10;0.10;;;24.10;99.90;;;;;;5095174;28;20110;-64
2023/09/14 15:05:42;;;;;;;0.32;0.32;;;23.90;99.90;;;;;;5094996;28;20178;-63
2023/09/14 15:08:08;;;;;;;0.32;0.10;;;24.40;99.90;;;;;;5094879;28;20516;-63
2023/09/14 15:10:34;;;;;;;0.30;0.30;;;24.00;99.90;;;;;;5094888;28;20113;-63
2023/09/14 15:13:00;;;;;;;0.10;0.10;;;23.40;99.90;;;;;;5094752;28;20044;-63
2023/09/14 15:15:26;;;;;;;0.10;0.10;;;23.60;99.90;;;;;;5094729;28;20055;-63
2023/09/14 15:17:53;;;;;;;0.40;0.25;;;23.50;99.90;;;;;;5094774;28;20047;-64